sensor_id;sensor_type;location;lat;lon;timestamp;P1;durP1;ratioP1;P2;durP2;ratioP2
37677;SDS011;23517;50.390;8.616;2024-01-30T00:00:05;10.90;;;6.43;;
37677;SDS011;23517;50.390;8.616;2024-01-30T00:02:34;11.88;;;6.22;;
37677;SDS011;23517;50.390;8.616;2024-01-30T00:05:01;9.75;;;6.13;;
37677;SDS011;23517;50.390;8.616;2024-01-30T00:07:29;11.07;;;6.50;;
37677;SDS011;23517;50.390;8.616;2024-01-30T00:09:56;11.13;;;6.05;;
37677;SDS011;23517;50.390;8.616;2024-01-30T00:12:23;9.07;;;5.82;;
37677;SDS011;23517;50.390;8.616;2024-01-30T00:14:50;13.48;;;6.38;;
37677;SDS011;23517;50.390;8.616;2024-01-30T00:17:20;9.10;;;6.03;;
37677;SDS011;23517;50.390;8.616;2024-01-30T00:19:46;8.13;;;5.97;;
37677;SDS011;23517;50.390;8.616;2024-01-30T00:22:13;11.15;;;6.05;;
37677;SDS011;23517;50.390;8.616;2024-01-30T00:24:40;15.25;;;7.25;;
37677;SDS011;23517;50.390;8.616;2024-01-30T00:27:08;12.27;;;5.95;;
37677;SDS011;23517;50.390;8.616;2024-01-30T00:29:34;13.85;;;7.18;;
37677;SDS011;23517;50.390;8.616;2024-01-30T00:32:01;11.18;;;7.57;;
37677;SDS011;23517;50.390;8.616;2024-01-30T00:34:28;10.30;;;6.43;;
37677;SDS011;23517;50.390;8.616;2024-01-30T00:36:55;9.70;;;6.85;;
37677;SDS011;23517;50.390;8.616;2024-01-30T00:39:22;13.82;;;7.35;;
37677;SDS011;23517;50.390;8.616;2024-01-30T00:41:49;11.20;;;7.60;;
37677;SDS011;23517;50.390;8.616;2024-01-30T00:44:16;11.90;;;6.78;;
37677;SDS011;23517;50.390;8.616;2024-01-30T00:46:42;8.70;;;6.05;;
37677;SDS011;23517;50.390;8.616;2024-01-30T00:49:10;11.52;;;6.68;;
37677;SDS011;23517;50.390;8.616;2024-01-30T00:51:36;10.18;;;7.00;;
37677;SDS011;23517;50.390;8.616;2024-01-30T00:54:03;12.02;;;5.85;;
37677;SDS011;23517;50.390;8.616;2024-01-30T00:56:30;10.65;;;6.90;;
37677;SDS011;23517;50.390;8.616;2024-01-30T00:58:57;13.35;;;6.90;;
37677;SDS011;23517;50.390;8.616;2024-01-30T01:01:24;9.95;;;6.25;;
37677;SDS011;23517;50.390;8.616;2024-01-30T01:03:50;10.15;;;6.03;;
37677;SDS011;23517;50.390;8.616;2024-01-30T01:06:17;9.02;;;5.90;;
37677;SDS011;23517;50.390;8.616;2024-01-30T01:08:44;11.18;;;6.15;;
37677;SDS011;23517;50.390;8.616;2024-01-30T01:11:11;8.60;;;6.30;;
37677;SDS011;23517;50.390;8.616;2024-01-30T01:13:37;9.93;;;6.03;;
37677;SDS011;23517;50.390;8.616;2024-01-30T01:16:04;11.50;;;6.30;;
37677;SDS011;23517;50.390;8.616;2024-01-30T01:18:31;10.68;;;6.85;;
37677;SDS011;23517;50.390;8.616;2024-01-30T01:20:58;11.35;;;6.20;;
37677;SDS011;23517;50.390;8.616;2024-01-30T01:23:25;11.13;;;6.65;;
37677;SDS011;23517;50.390;8.616;2024-01-30T01:25:51;11.35;;;7.10;;
37677;SDS011;23517;50.390;8.616;2024-01-30T01:28:18;15.30;;;7.40;;
37677;SDS011;23517;50.390;8.616;2024-01-30T01:30:45;12.50;;;7.45;;
37677;SDS011;23517;50.390;8.616;2024-01-30T01:33:12;12.27;;;7.55;;
37677;SDS011;23517;50.390;8.616;2024-01-30T01:35:40;11.48;;;7.55;;
37677;SDS011;23517;50.390;8.616;2024-01-30T01:38:07;11.10;;;6.80;;
37677;SDS011;23517;50.390;8.616;2024-01-30T01:40:34;9.95;;;6.22;;
37677;SDS011;23517;50.390;8.616;2024-01-30T01:43:02;10.90;;;7.75;;
37677;SDS011;23517;50.390;8.616;2024-01-30T01:45:30;10.30;;;6.78;;
37677;SDS011;23517;50.390;8.616;2024-01-30T01:47:57;10.73;;;6.15;;
37677;SDS011;23517;50.390;8.616;2024-01-30T01:50:24;10.70;;;6.28;;
37677;SDS011;23517;50.390;8.616;2024-01-30T01:52:51;8.65;;;6.65;;
37677;SDS011;23517;50.390;8.616;2024-01-30T01:55:19;11.27;;;6.25;;
37677;SDS011;23517;50.390;8.616;2024-01-30T01:57:48;9.00;;;5.95;;
37677;SDS011;23517;50.390;8.616;2024-01-30T02:00:15;9.75;;;6.25;;
37677;SDS011;23517;50.390;8.616;2024-01-30T02:02:45;8.70;;;6.63;;
37677;SDS011;23517;50.390;8.616;2024-01-30T02:05:13;10.75;;;6.38;;
37677;SDS011;23517;50.390;8.616;2024-01-30T02:07:42;9.55;;;6.40;;
37677;SDS011;23517;50.390;8.616;2024-01-30T02:10:10;10.63;;;6.65;;
37677;SDS011;23517;50.390;8.616;2024-01-30T02:12:36;10.38;;;5.68;;
37677;SDS011;23517;50.390;8.616;2024-01-30T02:15:04;10.93;;;6.10;;
37677;SDS011;23517;50.390;8.616;2024-01-30T02:17:31;11.02;;;6.68;;
37677;SDS011;23517;50.390;8.616;2024-01-30T02:19:58;12.52;;;6.18;;
37677;SDS011;23517;50.390;8.616;2024-01-30T02:22:26;8.30;;;6.45;;
37677;SDS011;23517;50.390;8.616;2024-01-30T02:24:53;9.55;;;5.90;;
37677;SDS011;23517;50.390;8.616;2024-01-30T02:27:19;10.32;;;6.63;;
37677;SDS011;23517;50.390;8.616;2024-01-30T02:29:46;12.65;;;6.88;;
37677;SDS011;23517;50.390;8.616;2024-01-30T02:32:13;10.20;;;6.70;;
37677;SDS011;23517;50.390;8.616;2024-01-30T02:34:39;10.30;;;6.85;;
37677;SDS011;23517;50.390;8.616;2024-01-30T02:37:06;11.80;;;6.53;;
37677;SDS011;23517;50.390;8.616;2024-01-30T02:39:33;9.20;;;6.70;;
37677;SDS011;23517;50.390;8.616;2024-01-30T02:42:00;12.88;;;6.50;;
37677;SDS011;23517;50.390;8.616;2024-01-30T02:44:27;10.55;;;6.60;;
37677;SDS011;23517;50.390;8.616;2024-01-30T02:46:53;9.60;;;6.32;;
37677;SDS011;23517;50.390;8.616;2024-01-30T02:49:25;8.98;;;6.22;;
37677;SDS011;23517;50.390;8.616;2024-01-30T02:51:53;11.10;;;6.65;;
37677;SDS011;23517;50.390;8.616;2024-01-30T02:54:21;10.60;;;6.50;;
37677;SDS011;23517;50.390;8.616;2024-01-30T02:56:47;13.65;;;7.50;;
37677;SDS011;23517;50.390;8.616;2024-01-30T02:59:14;13.98;;;6.82;;
37677;SDS011;23517;50.390;8.616;2024-01-30T03:01:44;14.95;;;8.73;;
37677;SDS011;23517;50.390;8.616;2024-01-30T03:04:12;11.30;;;7.55;;
37677;SDS011;23517;50.390;8.616;2024-01-30T03:06:44;14.05;;;7.90;;
37677;SDS011;23517;50.390;8.616;2024-01-30T03:09:13;11.73;;;7.30;;
37677;SDS011;23517;50.390;8.616;2024-01-30T03:11:42;9.02;;;6.40;;
37677;SDS011;23517;50.390;8.616;2024-01-30T03:14:09;11.40;;;7.10;;
37677;SDS011;23517;50.390;8.616;2024-01-30T03:16:37;11.15;;;7.32;;
37677;SDS011;23517;50.390;8.616;2024-01-30T03:19:05;11.90;;;6.97;;
37677;SDS011;23517;50.390;8.616;2024-01-30T03:21:35;12.30;;;7.18;;
37677;SDS011;23517;50.390;8.616;2024-01-30T03:24:01;13.32;;;7.28;;
37677;SDS011;23517;50.390;8.616;2024-01-30T03:26:28;15.27;;;8.00;;
37677;SDS011;23517;50.390;8.616;2024-01-30T03:28:55;12.13;;;8.05;;
37677;SDS011;23517;50.390;8.616;2024-01-30T03:31:22;11.82;;;7.55;;
37677;SDS011;23517;50.390;8.616;2024-01-30T03:33:49;12.13;;;8.05;;
37677;SDS011;23517;50.390;8.616;2024-01-30T03:36:15;12.07;;;6.93;;
37677;SDS011;23517;50.390;8.616;2024-01-30T03:38:42;10.00;;;6.90;;
37677;SDS011;23517;50.390;8.616;2024-01-30T03:41:09;10.68;;;6.57;;
37677;SDS011;23517;50.390;8.616;2024-01-30T03:43:39;10.95;;;6.97;;
37677;SDS011;23517;50.390;8.616;2024-01-30T03:46:06;11.05;;;6.35;;
37677;SDS011;23517;50.390;8.616;2024-01-30T03:48:33;12.32;;;7.32;;
37677;SDS011;23517;50.390;8.616;2024-01-30T03:51:04;10.65;;;7.47;;
37677;SDS011;23517;50.390;8.616;2024-01-30T03:53:31;11.80;;;6.75;;
37677;SDS011;23517;50.390;8.616;2024-01-30T03:55:58;12.27;;;6.30;;
37677;SDS011;23517;50.390;8.616;2024-01-30T03:58:24;9.20;;;6.10;;
37677;SDS011;23517;50.390;8.616;2024-01-30T04:00:51;8.52;;;5.88;;
37677;SDS011;23517;50.390;8.616;2024-01-30T04:03:18;10.57;;;6.72;;
37677;SDS011;23517;50.390;8.616;2024-01-30T04:05:45;12.35;;;5.85;;
37677;SDS011;23517;50.390;8.616;2024-01-30T04:08:12;9.25;;;6.25;;
37677;SDS011;23517;50.390;8.616;2024-01-30T04:10:38;12.70;;;7.10;;
37677;SDS011;23517;50.390;8.616;2024-01-30T04:13:05;11.77;;;6.55;;
37677;SDS011;23517;50.390;8.616;2024-01-30T04:15:35;9.88;;;6.72;;
37677;SDS011;23517;50.390;8.616;2024-01-30T04:18:01;14.93;;;9.48;;
37677;SDS011;23517;50.390;8.616;2024-01-30T04:20:29;17.63;;;9.45;;
37677;SDS011;23517;50.390;8.616;2024-01-30T04:22:56;15.15;;;9.85;;
37677;SDS011;23517;50.390;8.616;2024-01-30T04:25:25;12.52;;;8.45;;
37677;SDS011;23517;50.390;8.616;2024-01-30T04:27:52;12.68;;;8.30;;
37677;SDS011;23517;50.390;8.616;2024-01-30T04:30:19;13.38;;;9.25;;
37677;SDS011;23517;50.390;8.616;2024-01-30T04:32:46;13.90;;;8.73;;
37677;SDS011;23517;50.390;8.616;2024-01-30T04:35:16;13.40;;;7.65;;
37677;SDS011;23517;50.390;8.616;2024-01-30T04:37:43;16.10;;;7.22;;
37677;SDS011;23517;50.390;8.616;2024-01-30T04:40:09;13.85;;;7.93;;
37677;SDS011;23517;50.390;8.616;2024-01-30T04:42:37;12.38;;;7.45;;
37677;SDS011;23517;50.390;8.616;2024-01-30T04:45:03;11.75;;;7.40;;
37677;SDS011;23517;50.390;8.616;2024-01-30T04:47:31;12.85;;;7.43;;
37677;SDS011;23517;50.390;8.616;2024-01-30T04:49:58;11.73;;;6.95;;
37677;SDS011;23517;50.390;8.616;2024-01-30T04:52:25;14.05;;;7.32;;
37677;SDS011;23517;50.390;8.616;2024-01-30T04:54:51;11.20;;;7.10;;
37677;SDS011;23517;50.390;8.616;2024-01-30T04:57:19;11.85;;;8.10;;
37677;SDS011;23517;50.390;8.616;2024-01-30T04:59:47;11.65;;;7.25;;
37677;SDS011;23517;50.390;8.616;2024-01-30T05:02:14;14.15;;;8.25;;
37677;SDS011;23517;50.390;8.616;2024-01-30T05:04:41;11.15;;;7.90;;
37677;SDS011;23517;50.390;8.616;2024-01-30T05:07:08;12.02;;;8.18;;
37677;SDS011;23517;50.390;8.616;2024-01-30T05:09:35;10.65;;;7.18;;
37677;SDS011;23517;50.390;8.616;2024-01-30T05:12:02;10.40;;;7.07;;
37677;SDS011;23517;50.390;8.616;2024-01-30T05:14:29;9.40;;;6.57;;
37677;SDS011;23517;50.390;8.616;2024-01-30T05:16:55;11.30;;;7.18;;
37677;SDS011;23517;50.390;8.616;2024-01-30T05:19:22;9.20;;;6.60;;
37677;SDS011;23517;50.390;8.616;2024-01-30T05:21:49;10.00;;;6.88;;
37677;SDS011;23517;50.390;8.616;2024-01-30T05:24:16;12.95;;;7.10;;
37677;SDS011;23517;50.390;8.616;2024-01-30T05:26:46;10.45;;;7.15;;
37677;SDS011;23517;50.390;8.616;2024-01-30T05:29:15;12.95;;;7.47;;
37677;SDS011;23517;50.390;8.616;2024-01-30T05:31:41;12.73;;;7.18;;
37677;SDS011;23517;50.390;8.616;2024-01-30T05:34:08;10.95;;;7.50;;
37677;SDS011;23517;50.390;8.616;2024-01-30T05:36:35;11.23;;;7.15;;
37677;SDS011;23517;50.390;8.616;2024-01-30T05:39:02;9.90;;;7.15;;
37677;SDS011;23517;50.390;8.616;2024-01-30T05:41:31;10.45;;;6.90;;
37677;SDS011;23517;50.390;8.616;2024-01-30T05:43:58;11.00;;;7.20;;
37677;SDS011;23517;50.390;8.616;2024-01-30T05:46:24;12.25;;;7.97;;
37677;SDS011;23517;50.390;8.616;2024-01-30T05:48:51;12.05;;;7.82;;
37677;SDS011;23517;50.390;8.616;2024-01-30T05:51:18;11.73;;;8.00;;
37677;SDS011;23517;50.390;8.616;2024-01-30T05:53:45;11.25;;;7.85;;
37677;SDS011;23517;50.390;8.616;2024-01-30T05:56:12;13.00;;;8.65;;
37677;SDS011;23517;50.390;8.616;2024-01-30T05:58:38;12.27;;;6.65;;
37677;SDS011;23517;50.390;8.616;2024-01-30T06:01:08;12.27;;;6.95;;
37677;SDS011;23517;50.390;8.616;2024-01-30T06:03:35;15.07;;;7.55;;
37677;SDS011;23517;50.390;8.616;2024-01-30T06:06:02;11.18;;;7.55;;
37677;SDS011;23517;50.390;8.616;2024-01-30T06:08:29;12.18;;;7.70;;
37677;SDS011;23517;50.390;8.616;2024-01-30T06:10:55;12.30;;;7.38;;
37677;SDS011;23517;50.390;8.616;2024-01-30T06:13:22;11.00;;;6.97;;
37677;SDS011;23517;50.390;8.616;2024-01-30T06:15:49;12.13;;;6.93;;
37677;SDS011;23517;50.390;8.616;2024-01-30T06:18:15;11.38;;;6.93;;
37677;SDS011;23517;50.390;8.616;2024-01-30T06:20:42;9.65;;;7.00;;
37677;SDS011;23517;50.390;8.616;2024-01-30T06:23:09;12.30;;;8.32;;
37677;SDS011;23517;50.390;8.616;2024-01-30T06:25:36;10.05;;;6.95;;
37677;SDS011;23517;50.390;8.616;2024-01-30T06:28:03;10.48;;;6.70;;
37677;SDS011;23517;50.390;8.616;2024-01-30T06:30:30;12.65;;;7.72;;
37677;SDS011;23517;50.390;8.616;2024-01-30T06:32:59;12.70;;;7.05;;
37677;SDS011;23517;50.390;8.616;2024-01-30T06:35:28;10.77;;;7.30;;
37677;SDS011;23517;50.390;8.616;2024-01-30T06:37:56;10.73;;;7.00;;
37677;SDS011;23517;50.390;8.616;2024-01-30T06:40:22;11.85;;;7.40;;
37677;SDS011;23517;50.390;8.616;2024-01-30T06:42:49;14.15;;;6.60;;
37677;SDS011;23517;50.390;8.616;2024-01-30T06:45:16;8.65;;;6.55;;
37677;SDS011;23517;50.390;8.616;2024-01-30T06:47:43;9.65;;;6.57;;
37677;SDS011;23517;50.390;8.616;2024-01-30T06:50:10;10.85;;;7.43;;
37677;SDS011;23517;50.390;8.616;2024-01-30T06:52:36;8.65;;;6.40;;
37677;SDS011;23517;50.390;8.616;2024-01-30T06:55:03;11.95;;;7.03;;
37677;SDS011;23517;50.390;8.616;2024-01-30T06:57:30;12.30;;;9.35;;
37677;SDS011;23517;50.390;8.616;2024-01-30T06:59:57;17.92;;;12.60;;
37677;SDS011;23517;50.390;8.616;2024-01-30T07:02:24;24.00;;;15.90;;
37677;SDS011;23517;50.390;8.616;2024-01-30T07:04:50;30.08;;;20.30;;
37677;SDS011;23517;50.390;8.616;2024-01-30T07:07:17;17.90;;;11.90;;
37677;SDS011;23517;50.390;8.616;2024-01-30T07:09:44;13.80;;;9.02;;
37677;SDS011;23517;50.390;8.616;2024-01-30T07:12:11;12.80;;;8.40;;
37677;SDS011;23517;50.390;8.616;2024-01-30T07:14:37;14.85;;;8.75;;
37677;SDS011;23517;50.390;8.616;2024-01-30T07:17:04;15.02;;;8.30;;
37677;SDS011;23517;50.390;8.616;2024-01-30T07:19:32;10.57;;;7.22;;
37677;SDS011;23517;50.390;8.616;2024-01-30T07:21:59;11.98;;;7.40;;
37677;SDS011;23517;50.390;8.616;2024-01-30T07:24:26;13.43;;;8.52;;
37677;SDS011;23517;50.390;8.616;2024-01-30T07:26:53;15.23;;;8.15;;
37677;SDS011;23517;50.390;8.616;2024-01-30T07:29:19;16.95;;;10.30;;
37677;SDS011;23517;50.390;8.616;2024-01-30T07:31:46;15.55;;;8.63;;
37677;SDS011;23517;50.390;8.616;2024-01-30T07:34:13;15.90;;;8.75;;
37677;SDS011;23517;50.390;8.616;2024-01-30T07:36:40;18.00;;;11.43;;
37677;SDS011;23517;50.390;8.616;2024-01-30T07:39:06;18.77;;;12.07;;
37677;SDS011;23517;50.390;8.616;2024-01-30T07:41:33;21.75;;;12.05;;
37677;SDS011;23517;50.390;8.616;2024-01-30T07:44:02;26.98;;;14.00;;
37677;SDS011;23517;50.390;8.616;2024-01-30T07:46:29;24.20;;;12.45;;
37677;SDS011;23517;50.390;8.616;2024-01-30T07:48:59;19.33;;;11.20;;
37677;SDS011;23517;50.390;8.616;2024-01-30T07:51:26;14.35;;;10.52;;
37677;SDS011;23517;50.390;8.616;2024-01-30T07:53:54;15.38;;;10.10;;
37677;SDS011;23517;50.390;8.616;2024-01-30T07:56:21;12.98;;;8.38;;
37677;SDS011;23517;50.390;8.616;2024-01-30T07:58:48;14.65;;;9.55;;
37677;SDS011;23517;50.390;8.616;2024-01-30T08:01:15;16.42;;;9.30;;
37677;SDS011;23517;50.390;8.616;2024-01-30T08:03:42;15.65;;;9.63;;
37677;SDS011;23517;50.390;8.616;2024-01-30T08:06:09;11.15;;;7.78;;
37677;SDS011;23517;50.390;8.616;2024-01-30T08:08:36;11.93;;;8.13;;
37677;SDS011;23517;50.390;8.616;2024-01-30T08:11:03;15.77;;;7.90;;
37677;SDS011;23517;50.390;8.616;2024-01-30T08:13:30;14.40;;;8.95;;
37677;SDS011;23517;50.390;8.616;2024-01-30T08:15:57;11.73;;;7.70;;
37677;SDS011;23517;50.390;8.616;2024-01-30T08:18:24;12.25;;;7.53;;
37677;SDS011;23517;50.390;8.616;2024-01-30T08:20:51;11.40;;;7.10;;
37677;SDS011;23517;50.390;8.616;2024-01-30T08:23:17;9.40;;;6.88;;
37677;SDS011;23517;50.390;8.616;2024-01-30T08:25:44;9.82;;;6.95;;
37677;SDS011;23517;50.390;8.616;2024-01-30T08:28:11;9.90;;;6.60;;
37677;SDS011;23517;50.390;8.616;2024-01-30T08:30:38;14.27;;;8.18;;
37677;SDS011;23517;50.390;8.616;2024-01-30T08:33:05;12.90;;;8.05;;
37677;SDS011;23517;50.390;8.616;2024-01-30T08:35:32;11.38;;;7.45;;
37677;SDS011;23517;50.390;8.616;2024-01-30T08:37:59;13.27;;;7.60;;
37677;SDS011;23517;50.390;8.616;2024-01-30T08:40:26;11.48;;;7.47;;
37677;SDS011;23517;50.390;8.616;2024-01-30T08:42:55;10.27;;;7.35;;
37677;SDS011;23517;50.390;8.616;2024-01-30T08:45:21;12.23;;;7.40;;
37677;SDS011;23517;50.390;8.616;2024-01-30T08:47:48;13.82;;;7.95;;
37677;SDS011;23517;50.390;8.616;2024-01-30T08:50:15;10.25;;;7.30;;
37677;SDS011;23517;50.390;8.616;2024-01-30T08:52:42;14.18;;;7.97;;
37677;SDS011;23517;50.390;8.616;2024-01-30T08:55:11;11.77;;;8.38;;
37677;SDS011;23517;50.390;8.616;2024-01-30T08:57:38;12.40;;;8.75;;
37677;SDS011;23517;50.390;8.616;2024-01-30T09:00:05;15.38;;;10.25;;
37677;SDS011;23517;50.390;8.616;2024-01-30T09:02:35;19.75;;;10.02;;
37677;SDS011;23517;50.390;8.616;2024-01-30T09:05:02;18.15;;;12.35;;
37677;SDS011;23517;50.390;8.616;2024-01-30T09:07:29;17.58;;;11.80;;
37677;SDS011;23517;50.390;8.616;2024-01-30T09:09:56;23.58;;;14.40;;
37677;SDS011;23517;50.390;8.616;2024-01-30T09:12:22;25.58;;;14.98;;
37677;SDS011;23517;50.390;8.616;2024-01-30T09:14:50;22.92;;;13.82;;
37677;SDS011;23517;50.390;8.616;2024-01-30T09:17:16;19.90;;;12.70;;
37677;SDS011;23517;50.390;8.616;2024-01-30T09:19:43;26.90;;;15.82;;
37677;SDS011;23517;50.390;8.616;2024-01-30T09:22:10;28.98;;;17.70;;
37677;SDS011;23517;50.390;8.616;2024-01-30T09:24:37;21.90;;;13.70;;
37677;SDS011;23517;50.390;8.616;2024-01-30T09:27:03;18.42;;;12.52;;
37677;SDS011;23517;50.390;8.616;2024-01-30T09:29:30;59.35;;;28.50;;
37677;SDS011;23517;50.390;8.616;2024-01-30T09:31:59;155.05;;;68.28;;
37677;SDS011;23517;50.390;8.616;2024-01-30T09:34:26;67.30;;;35.08;;
37677;SDS011;23517;50.390;8.616;2024-01-30T09:36:53;52.95;;;25.35;;
37677;SDS011;23517;50.390;8.616;2024-01-30T09:39:19;77.68;;;36.15;;
37677;SDS011;23517;50.390;8.616;2024-01-30T09:41:51;87.13;;;40.25;;
37677;SDS011;23517;50.390;8.616;2024-01-30T09:44:47;70.70;;;32.70;;
37677;SDS011;23517;50.390;8.616;2024-01-30T09:47:18;43.55;;;22.10;;
37677;SDS011;23517;50.390;8.616;2024-01-30T09:49:44;45.63;;;23.50;;
37677;SDS011;23517;50.390;8.616;2024-01-30T09:52:12;60.13;;;27.00;;
37677;SDS011;23517;50.390;8.616;2024-01-30T09:54:39;57.97;;;26.45;;
37677;SDS011;23517;50.390;8.616;2024-01-30T09:57:07;44.67;;;23.95;;
37677;SDS011;23517;50.390;8.616;2024-01-30T09:59:34;49.40;;;25.50;;
37677;SDS011;23517;50.390;8.616;2024-01-30T10:02:01;63.75;;;32.60;;
37677;SDS011;23517;50.390;8.616;2024-01-30T10:04:32;42.63;;;25.38;;
37677;SDS011;23517;50.390;8.616;2024-01-30T10:07:00;62.97;;;32.33;;
37677;SDS011;23517;50.390;8.616;2024-01-30T10:09:31;61.47;;;35.65;;
37677;SDS011;23517;50.390;8.616;2024-01-30T10:11:59;28.67;;;17.88;;
37677;SDS011;23517;50.390;8.616;2024-01-30T10:14:27;30.40;;;19.20;;
37677;SDS011;23517;50.390;8.616;2024-01-30T10:16:54;26.90;;;17.08;;
37677;SDS011;23517;50.390;8.616;2024-01-30T10:19:21;28.42;;;18.05;;
37677;SDS011;23517;50.390;8.616;2024-01-30T10:21:48;31.15;;;18.45;;
37677;SDS011;23517;50.390;8.616;2024-01-30T10:24:15;46.72;;;28.38;;
37677;SDS011;23517;50.390;8.616;2024-01-30T10:26:43;66.45;;;39.58;;
37677;SDS011;23517;50.390;8.616;2024-01-30T10:29:10;184.27;;;103.07;;
37677;SDS011;23517;50.390;8.616;2024-01-30T10:31:37;67.03;;;40.08;;
37677;SDS011;23517;50.390;8.616;2024-01-30T10:34:04;27.35;;;17.08;;
37677;SDS011;23517;50.390;8.616;2024-01-30T10:36:44;31.17;;;18.27;;
37677;SDS011;23517;50.390;8.616;2024-01-30T10:39:17;171.25;;;103.43;;
37677;SDS011;23517;50.390;8.616;2024-01-30T10:41:44;51.95;;;34.45;;
37677;SDS011;23517;50.390;8.616;2024-01-30T10:44:11;52.08;;;36.00;;
37677;SDS011;23517;50.390;8.616;2024-01-30T10:46:39;33.63;;;20.92;;
37677;SDS011;23517;50.390;8.616;2024-01-30T10:49:08;73.60;;;50.20;;
37677;SDS011;23517;50.390;8.616;2024-01-30T10:51:36;68.03;;;46.10;;
37677;SDS011;23517;50.390;8.616;2024-01-30T10:54:05;90.45;;;53.90;;
37677;SDS011;23517;50.390;8.616;2024-01-30T10:56:33;83.07;;;50.38;;
37677;SDS011;23517;50.390;8.616;2024-01-30T10:59:01;35.95;;;24.00;;
37677;SDS011;23517;50.390;8.616;2024-01-30T11:01:27;30.20;;;19.48;;
37677;SDS011;23517;50.390;8.616;2024-01-30T11:03:55;27.58;;;18.33;;
37677;SDS011;23517;50.390;8.616;2024-01-30T11:06:24;58.97;;;37.75;;
37677;SDS011;23517;50.390;8.616;2024-01-30T11:09:04;32.47;;;21.80;;
37677;SDS011;23517;50.390;8.616;2024-01-30T11:11:55;32.88;;;20.67;;
37677;SDS011;23517;50.390;8.616;2024-01-30T11:14:29;49.42;;;30.25;;
37677;SDS011;23517;50.390;8.616;2024-01-30T11:16:57;42.75;;;28.35;;
37677;SDS011;23517;50.390;8.616;2024-01-30T11:19:26;36.45;;;24.48;;
37677;SDS011;23517;50.390;8.616;2024-01-30T11:21:54;29.45;;;20.65;;
37677;SDS011;23517;50.390;8.616;2024-01-30T11:24:23;21.35;;;15.43;;
37677;SDS011;23517;50.390;8.616;2024-01-30T11:26:57;55.83;;;40.40;;
37677;SDS011;23517;50.390;8.616;2024-01-30T11:29:29;22.48;;;16.98;;
37677;SDS011;23517;50.390;8.616;2024-01-30T11:31:56;25.65;;;17.65;;
37677;SDS011;23517;50.390;8.616;2024-01-30T11:34:25;51.50;;;32.17;;
37677;SDS011;23517;50.390;8.616;2024-01-30T11:36:53;93.03;;;57.03;;
37677;SDS011;23517;50.390;8.616;2024-01-30T11:39:25;24.27;;;17.38;;
37677;SDS011;23517;50.390;8.616;2024-01-30T11:41:53;20.77;;;13.32;;
37677;SDS011;23517;50.390;8.616;2024-01-30T11:44:20;20.90;;;14.20;;
37677;SDS011;23517;50.390;8.616;2024-01-30T11:46:50;60.78;;;38.00;;
37677;SDS011;23517;50.390;8.616;2024-01-30T11:49:18;28.65;;;20.50;;
37677;SDS011;23517;50.390;8.616;2024-01-30T11:51:45;25.67;;;17.33;;
37677;SDS011;23517;50.390;8.616;2024-01-30T11:54:15;25.92;;;17.67;;
37677;SDS011;23517;50.390;8.616;2024-01-30T11:56:42;61.13;;;37.88;;
37677;SDS011;23517;50.390;8.616;2024-01-30T11:59:09;62.88;;;38.20;;
37677;SDS011;23517;50.390;8.616;2024-01-30T12:01:36;49.38;;;31.67;;
37677;SDS011;23517;50.390;8.616;2024-01-30T12:04:03;28.67;;;16.70;;
37677;SDS011;23517;50.390;8.616;2024-01-30T12:06:34;25.98;;;17.00;;
37677;SDS011;23517;50.390;8.616;2024-01-30T12:09:03;31.38;;;19.67;;
37677;SDS011;23517;50.390;8.616;2024-01-30T12:11:47;24.40;;;16.13;;
37677;SDS011;23517;50.390;8.616;2024-01-30T12:14:18;25.27;;;14.55;;
37677;SDS011;23517;50.390;8.616;2024-01-30T12:16:49;21.50;;;14.40;;
37677;SDS011;23517;50.390;8.616;2024-01-30T12:19:26;18.42;;;14.43;;
37677;SDS011;23517;50.390;8.616;2024-01-30T12:21:54;22.10;;;15.18;;
37677;SDS011;23517;50.390;8.616;2024-01-30T12:24:22;20.90;;;14.88;;
37677;SDS011;23517;50.390;8.616;2024-01-30T12:26:50;21.27;;;14.82;;
37677;SDS011;23517;50.390;8.616;2024-01-30T12:29:19;19.23;;;13.88;;
37677;SDS011;23517;50.390;8.616;2024-01-30T12:31:47;21.77;;;14.35;;
37677;SDS011;23517;50.390;8.616;2024-01-30T12:34:14;19.92;;;14.73;;
37677;SDS011;23517;50.390;8.616;2024-01-30T12:36:43;21.42;;;15.43;;
37677;SDS011;23517;50.390;8.616;2024-01-30T12:39:13;20.95;;;14.30;;
37677;SDS011;23517;50.390;8.616;2024-01-30T12:41:41;19.05;;;13.63;;
37677;SDS011;23517;50.390;8.616;2024-01-30T12:44:08;17.50;;;13.52;;
37677;SDS011;23517;50.390;8.616;2024-01-30T12:46:35;29.92;;;17.30;;
37677;SDS011;23517;50.390;8.616;2024-01-30T12:49:01;27.70;;;16.40;;
37677;SDS011;23517;50.390;8.616;2024-01-30T12:51:28;20.08;;;14.32;;
37677;SDS011;23517;50.390;8.616;2024-01-30T12:53:55;20.83;;;13.73;;
37677;SDS011;23517;50.390;8.616;2024-01-30T12:56:22;25.38;;;15.82;;
37677;SDS011;23517;50.390;8.616;2024-01-30T12:58:48;20.85;;;14.23;;
37677;SDS011;23517;50.390;8.616;2024-01-30T13:01:19;20.80;;;14.60;;
37677;SDS011;23517;50.390;8.616;2024-01-30T13:03:46;21.75;;;15.02;;
37677;SDS011;23517;50.390;8.616;2024-01-30T13:06:13;18.98;;;13.77;;
37677;SDS011;23517;50.390;8.616;2024-01-30T13:08:40;22.40;;;14.80;;
37677;SDS011;23517;50.390;8.616;2024-01-30T13:11:06;19.80;;;14.32;;
37677;SDS011;23517;50.390;8.616;2024-01-30T13:13:43;21.98;;;14.80;;
37677;SDS011;23517;50.390;8.616;2024-01-30T13:16:10;20.08;;;14.50;;
37677;SDS011;23517;50.390;8.616;2024-01-30T13:18:37;20.05;;;14.43;;
37677;SDS011;23517;50.390;8.616;2024-01-30T13:21:04;19.13;;;13.60;;
37677;SDS011;23517;50.390;8.616;2024-01-30T13:23:30;18.98;;;13.63;;
37677;SDS011;23517;50.390;8.616;2024-01-30T13:25:57;22.30;;;14.82;;
37677;SDS011;23517;50.390;8.616;2024-01-30T13:28:24;17.67;;;13.65;;
37677;SDS011;23517;50.390;8.616;2024-01-30T13:30:52;22.30;;;14.10;;
37677;SDS011;23517;50.390;8.616;2024-01-30T13:33:18;18.00;;;13.38;;
37677;SDS011;23517;50.390;8.616;2024-01-30T13:35:45;20.38;;;13.40;;
37677;SDS011;23517;50.390;8.616;2024-01-30T13:38:12;20.92;;;13.93;;
37677;SDS011;23517;50.390;8.616;2024-01-30T13:40:40;17.20;;;13.48;;
37677;SDS011;23517;50.390;8.616;2024-01-30T13:43:06;21.05;;;14.25;;
37677;SDS011;23517;50.390;8.616;2024-01-30T13:45:33;24.67;;;14.60;;
37677;SDS011;23517;50.390;8.616;2024-01-30T13:48:00;19.95;;;13.80;;
37677;SDS011;23517;50.390;8.616;2024-01-30T13:50:27;21.25;;;13.93;;
37677;SDS011;23517;50.390;8.616;2024-01-30T13:52:53;20.15;;;14.70;;
37677;SDS011;23517;50.390;8.616;2024-01-30T13:55:21;20.38;;;13.77;;
37677;SDS011;23517;50.390;8.616;2024-01-30T13:57:47;20.77;;;13.00;;
37677;SDS011;23517;50.390;8.616;2024-01-30T14:00:17;19.80;;;13.68;;
37677;SDS011;23517;50.390;8.616;2024-01-30T14:02:44;22.05;;;14.68;;
37677;SDS011;23517;50.390;8.616;2024-01-30T14:05:10;22.23;;;14.10;;
37677;SDS011;23517;50.390;8.616;2024-01-30T14:07:38;21.38;;;13.98;;
37677;SDS011;23517;50.390;8.616;2024-01-30T14:10:09;25.92;;;14.77;;
37677;SDS011;23517;50.390;8.616;2024-01-30T14:12:43;22.60;;;14.35;;
37677;SDS011;23517;50.390;8.616;2024-01-30T14:15:11;16.77;;;13.13;;
37677;SDS011;23517;50.390;8.616;2024-01-30T14:17:52;20.90;;;14.02;;
37677;SDS011;23517;50.390;8.616;2024-01-30T14:20:20;23.40;;;14.25;;
37677;SDS011;23517;50.390;8.616;2024-01-30T14:22:47;19.67;;;13.43;;
37677;SDS011;23517;50.390;8.616;2024-01-30T14:25:13;17.85;;;13.57;;
37677;SDS011;23517;50.390;8.616;2024-01-30T14:27:40;26.83;;;15.63;;
37677;SDS011;23517;50.390;8.616;2024-01-30T14:30:09;21.00;;;14.85;;
37677;SDS011;23517;50.390;8.616;2024-01-30T14:32:37;23.33;;;14.60;;